Time;durP1;ratioP1;P1;durP2;ratioP2;P2;SDS_P1;SDS_P2;PMS_P1;PMS_P2;Temp;Humidity;BMP_temperature;BMP_pressure;BME280_temperature;BME280_humidity;BME280_pressure;Samples;Min_cycle;Max_cycle;Signal;HPM_P1;HPM_P2
2024/03/15 00:00:40;;;;;;;21.20;12.80;;;;;;;13.08;40.56;99824.30;104869;1255;60998;-60
2024/03/15 00:03:55;;;;;;;23.20;15.30;;;;;;;13.40;40.15;99823.40;104541;1259;60528;-61
2024/03/15 00:14:09;;;;;;;20.20;13.50;;;;;;;12.41;41.23;99812.30;105369;1257;73312;-59
2024/03/15 00:17:18;;;;;;;19.00;13.30;;;;;;;12.37;41.12;99809.29;105436;1260;61074;-59
2024/03/15 00:24:06;;;;;;;19.70;13.70;;;;;;;12.43;41.28;99802.35;106062;1251;74107;-60
2024/03/15 00:27:18;;;;;;;21.20;13.70;;;;;;;12.31;41.10;99804.67;105094;1257;69201;-59
2024/03/15 00:30:17;;;;;;;20.90;14.50;;;;;;;12.16;41.36;99799.05;104507;1270;73356;-59
2024/03/15 00:33:29;;;;;;;24.20;14.60;;;;;;;12.19;41.79;99799.95;104296;1258;60681;-60
2024/03/15 00:36:26;;;;;;;17.80;13.70;;;;;;;12.25;41.92;99797.58;104932;1254;60501;-60
2024/03/15 00:39:38;;;;;;;19.80;12.90;;;;;;;12.27;42.33;99800.45;104414;1272;74527;-60
2024/03/15 00:42:49;;;;;;;20.00;14.00;;;;;;;12.33;42.35;99803.86;105815;1257;69984;-60
2024/03/15 00:46:02;;;;;;;22.50;13.50;;;;;;;12.46;42.60;99802.73;107434;1257;73464;-60
2024/03/15 00:49:14;;;;;;;18.60;13.20;;;;;;;12.84;41.94;99802.45;104963;1257;61482;-60
2024/03/15 00:52:33;;;;;;;19.30;14.10;;;;;;;12.48;42.65;99804.75;104521;1254;60510;-64
2024/03/15 00:55:35;;;;;;;20.60;14.50;;;;;;;12.47;42.83;99804.96;105154;1255;73932;-59
2024/03/15 00:58:47;;;;;;;19.20;13.10;;;;;;;12.43;42.82;99802.16;105070;1257;70104;-60
2024/03/15 01:01:27;;;;;;;19.60;12.50;;;;;;;12.45;41.85;99804.70;106004;1259;72467;-62
2024/03/15 01:04:35;;;;;;;20.80;13.30;;;;;;;12.45;41.94;99798.53;104724;1254;61642;-60
2024/03/15 01:07:40;;;;;;;18.90;11.90;;;;;;;12.42;41.54;99798.34;105833;1254;60919;-61
2024/03/15 01:10:53;;;;;;;22.70;12.60;;;;;;;12.34;41.74;99799.08;104987;1254;74497;-60
2024/03/15 01:13:33;;;;;;;19.30;13.10;;;;;;;12.28;41.66;99798.50;105985;1254;69293;-60
2024/03/15 01:16:46;;;;;;;21.70;11.80;;;;;;;12.30;41.67;99798.04;104631;1258;71474;-60
2024/03/15 01:26:59;;;;;;;17.90;12.70;;;;;;;12.34;41.54;99803.11;105400;1254;74063;-59
2024/03/15 01:30:10;;;;;;;17.10;12.50;;;;;;;12.33;41.64;99804.96;105948;1254;69165;-59
2024/03/15 01:36:54;;;;;;;18.90;12.40;;;;;;;12.32;41.56;99801.78;104807;1254;60465;-61
2024/03/15 01:40:09;;;;;;;22.90;13.50;;;;;;;12.31;41.56;99802.77;104963;1256;60992;-60
2024/03/15 01:46:51;;;;;;;16.00;12.10;;;;;;;12.32;42.12;99804.45;105576;1254;69223;-61
2024/03/15 01:50:07;;;;;;;19.10;13.10;;;;;;;12.32;41.92;99803.91;104326;1273;72943;-60
2024/03/15 01:52:54;;;;;;;17.80;13.20;;;;;;;12.30;41.78;99807.36;104611;1254;60903;-60
2024/03/15 01:56:06;;;;;;;18.20;13.10;;;;;;;12.30;42.02;99810.16;105211;1254;60561;-61
2024/03/15 01:58:46;;;;;;;19.80;12.70;;;;;;;12.35;41.97;99814.30;105393;1253;74092;-61
2024/03/15 02:01:29;;;;;;;16.10;12.10;;;;;;;12.41;41.82;99816.51;105749;1253;69303;-60
2024/03/15 02:04:41;;;;;;;18.40;13.10;;;;;;;12.42;42.01;99819.25;105637;1257;74463;-60
2024/03/15 02:14:54;;;;;;;28.70;14.20;;;;;;;12.50;41.72;99828.02;106038;1254;73717;-60
2024/03/15 02:18:05;;;;;;;20.00;13.30;;;;;;;12.44;42.01;99833.92;105451;1254;69430;-60
2024/03/15 02:21:27;;;;;;;24.10;14.70;;;;;;;12.44;42.06;99830.60;104829;1254;71568;-60
2024/03/15 02:24:38;;;;;;;21.20;14.70;;;;;;;12.41;41.96;99831.45;106442;1254;60568;-60
2024/03/15 02:27:53;;;;;;;21.80;14.50;;;;;;;12.73;41.77;99834.30;104548;1259;60645;-61
2024/03/15 02:31:08;;;;;;;20.40;15.30;;;;;;;12.86;41.28;99832.80;104935;1253;73603;-60
2024/03/15 02:34:23;;;;;;;21.30;14.20;;;;;;;12.90;41.27;99832.05;105279;1254;70166;-60
2024/03/15 02:40:55;;;;;;;25.00;16.10;;;;;;;12.97;41.39;99842.27;105510;1253;60981;-61
2024/03/15 02:47:39;;;;;;;22.00;16.10;;;;;;;12.99;41.56;99843.25;105156;1253;73642;-60
2024/03/15 02:50:09;;;;;;;21.00;14.80;;;;;;;12.93;41.55;99845.47;104548;1256;69741;-61
2024/03/15 02:53:03;;;;;;;22.60;15.60;;;;;;;12.75;41.94;99846.02;105624;1254;72520;-61
2024/03/15 02:56:27;;;;;;;23.00;16.00;;;;;;;12.77;42.22;99846.79;105894;1255;61595;-61
2024/03/15 02:59:39;;;;;;;26.80;16.10;;;;;;;12.71;42.16;99849.52;105901;1251;60103;-61
2024/03/15 03:02:53;;;;;;;25.50;15.80;;;;;;;12.57;42.26;99851.63;105574;1254;73618;-60
2024/03/15 03:06:06;;;;;;;25.00;16.00;;;;;;;12.55;42.48;99847.29;105928;1254;69400;-61
2024/03/15 03:09:19;;;;;;;28.60;15.50;;;;;;;12.79;42.31;99842.98;105924;1254;72276;-61
2024/03/15 03:12:32;;;;;;;25.90;14.90;;;;;;;12.53;42.36;99838.80;108385;1252;60658;-61
2024/03/15 03:15:43;;;;;;;28.00;14.80;;;;;;;12.51;42.89;99839.75;108268;1251;60676;-59
2024/03/15 03:18:55;;;;;;;25.60;15.90;;;;;;;12.48;43.20;99840.11;108269;1253;74535;-59
2024/03/15 03:21:28;;;;;;;23.60;15.30;;;;;;;12.53;43.05;99832.27;108260;1251;69996;-59
2024/03/15 03:24:42;;;;;;;26.60;15.40;;;;;;;12.53;43.33;99845.63;108245;1251;71213;-59
2024/03/15 03:27:57;;;;;;;24.00;15.20;;;;;;;11.27;45.55;99849.66;108262;1251;60691;-60
2024/03/15 03:31:11;;;;;;;23.30;16.10;;;;;;;11.79;45.33;99849.03;108221;1251;60113;-58
2024/03/15 03:34:23;;;;;;;23.70;15.60;;;;;;;11.16;46.48;99855.23;108279;1251;73551;-58
2024/03/15 03:37:34;;;;;;;23.30;15.40;;;;;;;11.10;46.93;99857.55;108278;1251;69296;-58
2024/03/15 03:40:45;;;;;;;24.50;13.80;;;;;;;11.11;47.54;99860.15;108240;1251;73340;-58
2024/03/15 03:43:56;;;;;;;20.70;15.70;;;;;;;11.12;47.72;99863.09;108366;1251;61075;-59
2024/03/15 03:47:07;;;;;;;22.70;15.10;;;;;;;11.13;47.27;99863.23;108293;1253;60638;-60
2024/03/15 03:50:22;;;;;;;19.40;14.10;;;;;;;11.04;47.80;99865.20;108290;1254;74514;-60
2024/03/15 03:54:46;;;;;;;21.00;16.30;;;;;;;11.17;50.48;99869.36;100909;1294;606578;-59
2024/03/15 03:57:58;;;;;;;21.00;15.10;;;;;;;12.65;45.52;99869.19;103595;1273;60806;-60
2024/03/15 04:01:09;;;;;;;20.00;15.20;;;;;;;12.54;45.48;99874.28;103492;1281;59975;-60
2024/03/15 04:04:22;;;;;;;18.90;14.30;;;;;;;12.45;45.82;99874.65;103963;1268;71118;-59
2024/03/15 04:06:51;;;;;;;24.50;15.30;;;;;;;12.27;45.94;99874.98;99221;1267;6485960;-59
2024/03/15 04:10:03;;;;;;;24.50;15.30;;;;;;;11.91;46.32;99872.18;103759;1274;60574;-60
2024/03/15 04:21:05;;;;;;;23.00;15.80;;;;;;;12.21;46.21;99864.52;106291;1260;68772;-61
2024/03/15 04:28:38;;;;;;;20.50;13.90;;;;;;;11.14;48.26;99872.52;103961;1265;62636;-60
2024/03/15 04:31:49;;;;;;;18.30;14.70;;;;;;;11.10;48.66;99872.85;104296;1274;59749;-60
2024/03/15 04:35:01;;;;;;;21.10;15.70;;;;;;;11.46;48.12;99870.09;105465;1263;72767;-60
2024/03/15 04:38:13;;;;;;;23.00;15.10;;;;;;;11.42;48.16;99871.33;104021;1264;69584;-60
2024/03/15 04:41:24;;;;;;;23.50;16.00;;;;;;;11.39;48.81;99875.15;104803;1264;72610;-60
2024/03/15 04:44:37;;;;;;;24.40;14.80;;;;;;;11.43;48.89;99879.89;103953;1270;63440;-59
2024/03/15 04:47:49;;;;;;;26.00;16.80;;;;;;;11.48;49.10;99876.34;103966;1264;60726;-60
2024/03/15 04:51:01;;;;;;;21.60;15.70;;;;;;;11.47;48.86;99881.80;104865;1264;72775;-60
2024/03/15 04:54:13;;;;;;;21.20;16.20;;;;;;;11.45;49.24;99880.33;103997;1267;69208;-60
2024/03/15 05:16:28;;;;;;;18.20;13.60;;;;;;;12.54;48.31;99897.29;104747;1266;70275;-60
2024/03/15 05:34:10;;;;;;;21.90;16.30;;;;;;;12.59;47.76;99914.80;104718;1264;73810;-60
2024/03/15 05:37:16;;;;;;;24.60;16.40;;;;;;;12.62;47.53;99922.39;104905;1264;68339;-58
2024/03/15 16:10:25;;;;;;;33.40;25.50;;;;;;;14.61;57.11;99915.83;100935;1295;604654;-61
2024/03/15 16:13:31;;;;;;;34.80;27.10;;;;;;;15.67;51.19;99914.65;104445;1268;61394;-60
2024/03/15 16:16:04;;;;;;;37.80;28.90;;;;;;;15.58;50.99;99916.92;104660;1260;59768;-60
2024/03/15 16:19:24;;;;;;;40.20;28.20;;;;;;;15.49;51.18;99917.96;104561;1255;72118;-61
2024/03/15 16:22:32;;;;;;;41.30;30.80;;;;;;;15.33;51.68;99922.75;104699;1262;69402;-61
2024/03/15 16:25:02;;;;;;;40.70;30.00;;;;;;;15.21;51.93;99924.88;104129;1259;285698;-59
2024/03/15 16:27:48;;;;;;;44.40;30.10;;;;;;;15.15;51.72;99927.89;106774;1252;61797;-60
2024/03/15 16:30:53;;;;;;;41.10;29.50;;;;;;;15.28;52.15;99928.35;104313;1270;64020;-61
2024/03/15 16:33:21;;;;;;;40.70;30.50;;;;;;;15.10;52.53;99929.40;105454;1257;72082;-60
2024/03/15 16:35:49;;;;;;;39.40;30.40;;;;;;;15.25;52.13;99932.59;105188;1257;69563;-60
2024/03/15 16:38:57;;;;;;;40.00;30.10;;;;;;;15.37;51.82;99934.38;104683;1254;71794;-63
2024/03/15 16:41:35;;;;;;;42.10;29.70;;;;;;;15.09;52.89;99936.38;105655;1254;59951;-60
2024/03/15 16:44:22;;;;;;;36.10;29.00;;;;;;;15.02;53.18;99938.17;104354;1259;61672;-61
2024/03/15 16:47:45;;;;;;;40.70;30.70;;;;;;;14.91;53.01;99937.34;105597;1257;73579;-60
2024/03/15 16:50:53;;;;;;;40.30;29.60;;;;;;;14.85;53.44;99938.20;105783;1258;69876;-60
2024/03/15 16:53:59;;;;;;;39.70;29.80;;;;;;;14.73;53.62;99937.64;105759;1256;74554;-60
2024/03/15 16:57:14;;;;;;;41.30;31.00;;;;;;;14.43;54.56;99941.20;106250;1254;60873;-61
2024/03/15 16:59:51;;;;;;;38.80;30.60;;;;;;;14.24;54.67;99943.27;105190;1259;59656;-61
2024/03/15 17:03:02;;;;;;;38.20;30.20;;;;;;;14.13;55.86;99945.41;104960;1257;73319;-61
2024/03/15 17:05:52;;;;;;;39.90;29.90;;;;;;;14.11;56.59;99940.94;105057;1258;68807;-58
2024/03/15 17:18:13;;;;;;;39.50;31.00;;;;;;;14.29;57.04;99962.39;105015;1253;76267;-60
2024/03/15 17:27:14;;;;;;;41.60;31.90;;;;;;;14.11;56.82;99963.85;104893;1254;61115;-60
2024/03/15 17:30:26;;;;;;;42.30;32.20;;;;;;;14.08;58.11;99964.02;104213;1275;59647;-59
2024/03/15 17:33:46;;;;;;;40.90;30.10;;;;;;;14.01;58.82;99967.20;105508;1257;75328;-60
2024/03/15 17:36:59;;;;;;;41.70;30.40;;;;;;;14.02;58.81;99966.79;105720;1260;69990;-60
2024/03/15 17:40:12;;;;;;;42.50;32.90;;;;;;;14.00;59.02;99970.26;106090;1258;73528;-60
2024/03/15 17:43:25;;;;;;;45.10;32.90;;;;;;;13.96;59.83;99969.75;105625;1258;61171;-60
2024/03/15 17:45:55;;;;;;;44.80;32.70;;;;;;;13.93;60.59;99971.33;105534;1258;60467;-60
2024/03/15 17:49:08;;;;;;;39.60;32.00;;;;;;;13.92;60.67;99969.23;105570;1254;73111;-60
2024/03/15 17:52:18;;;;;;;45.90;33.30;;;;;;;13.99;60.85;99965.71;105561;1257;69271;-60
2024/03/15 17:55:32;;;;;;;41.20;31.30;;;;;;;14.08;60.15;99965.46;106507;1254;71465;-60
2024/03/15 18:11:36;;;;;;;42.70;32.70;;;;;;;14.12;61.33;99963.11;105426;1258;72580;-62
2024/03/15 18:14:48;;;;;;;37.10;30.40;;;;;;;14.09;61.87;99962.38;107555;1254;59672;-62
2024/03/15 18:20:54;;;;;;;41.00;31.20;;;;;;;14.05;62.56;99962.23;105344;1254;73039;-61
2024/03/15 18:40:34;;;;;;;60.30;37.60;;;;;;;13.63;66.25;99958.23;105624;1254;69229;-63
2024/03/15 18:43:45;;;;;;;52.80;37.90;;;;;;;13.60;66.45;99954.31;104846;1258;72699;-63
2024/03/15 18:46:25;;;;;;;77.60;47.20;;;;;;;14.00;64.70;99952.43;105808;1255;60831;-64
2024/03/15 18:49:37;;;;;;;85.00;51.30;;;;;;;13.71;64.56;99954.84;106086;1254;60028;-64
2024/03/15 18:58:12;;;;;;;69.90;44.30;;;;;;;14.00;63.61;99952.42;106591;1254;73362;-62
2024/03/15 19:01:24;;;;;;;59.80;41.60;;;;;;;14.03;63.53;99950.70;105911;1254;59696;-64
2024/03/15 19:10:21;;;;;;;57.70;41.30;;;;;;;13.94;63.82;99955.91;104955;1254;70924;-62
2024/03/15 19:13:33;;;;;;;53.20;37.80;;;;;;;13.88;64.34;99954.46;107023;1254;72165;-62
2024/03/15 19:45:54;;;;;;;53.80;37.70;;;;;;;13.92;63.92;99950.21;105467;1257;73255;-61
2024/03/15 19:49:05;;;;;;;50.10;37.20;;;;;;;13.93;63.72;99952.08;105304;1257;61247;-60
2024/03/15 19:52:17;;;;;;;49.10;35.40;;;;;;;13.74;65.41;99952.93;106491;1254;60113;-61
2024/03/15 20:04:45;;;;;;;50.30;34.70;;;;;;;13.72;65.76;99947.73;105102;1257;61252;-58
2024/03/15 20:16:31;;;;;;;51.20;36.20;;;;;;;13.53;67.69;99947.79;105965;1254;73357;-59
2024/03/15 20:25:42;;;;;;;50.30;37.90;;;;;;;13.87;65.43;99943.58;104648;1254;73191;-58
2024/03/15 20:31:49;;;;;;;51.30;37.30;;;;;;;13.30;69.01;99939.59;105123;1258;73367;-61
2024/03/15 20:54:13;;;;;;;56.80;40.00;;;;;;;13.02;71.70;99942.31;105899;1254;59835;-60
2024/03/15 20:57:15;;;;;;;63.30;41.70;;;;;;;13.09;72.10;99940.44;107398;1253;74126;-67
2024/03/15 21:00:27;;;;;;;48.40;37.30;;;;;;;13.10;72.21;99943.39;107204;1253;69389;-63
2024/03/15 21:06:37;;;;;;;54.20;39.80;;;;;;;13.04;73.74;99946.44;104833;1254;61570;-64
2024/03/15 21:09:13;;;;;;;53.10;37.10;;;;;;;13.05;73.85;99942.73;106274;1254;59765;-63
2024/03/15 21:28:49;;;;;;;46.20;33.50;;;;;;;13.86;65.05;99943.13;106245;1254;74144;-65
2024/03/15 21:32:04;;;;;;;47.20;33.80;;;;;;;13.72;66.10;99940.34;105097;1261;69232;-65
2024/03/15 21:45:15;;;;;;;48.50;35.10;;;;;;;13.73;65.71;99942.02;105624;1254;74525;-63
2024/03/15 21:48:28;;;;;;;46.40;33.90;;;;;;;13.72;66.05;99945.29;104913;1252;71577;-64
2024/03/15 21:51:40;;;;;;;51.30;35.80;;;;;;;13.45;67.72;99948.19;104749;1270;71640;-63
2024/03/15 22:07:21;;;;;;;51.70;36.10;;;;;;;13.12;71.68;99942.20;106257;1253;72806;-62
2024/03/15 22:10:33;;;;;;;54.60;36.80;;;;;;;13.12;71.61;99941.14;105870;1253;61246;-64
2024/03/15 22:16:56;;;;;;;47.40;35.40;;;;;;;13.04;72.38;99944.35;105411;1257;73259;-62
2024/03/15 22:20:11;;;;;;;47.90;35.70;;;;;;;12.92;73.95;99947.41;106198;1256;69159;-65
2024/03/15 22:23:23;;;;;;;48.50;35.30;;;;;;;12.95;74.24;99943.54;105754;1253;72357;-65
2024/03/15 22:26:35;;;;;;;48.40;36.50;;;;;;;13.01;73.81;99943.64;104986;1258;60765;-65
2024/03/15 22:29:47;;;;;;;50.30;35.30;;;;;;;13.00;73.42;99941.05;106416;1257;60455;-67
2024/03/15 22:35:55;;;;;;;48.40;36.10;;;;;;;12.95;74.11;99935.45;105078;1254;69186;-67
2024/03/15 22:49:25;;;;;;;51.60;36.50;;;;;;;13.14;73.40;99931.19;107187;1253;72499;-67
2024/03/15 22:52:36;;;;;;;61.50;41.20;;;;;;;13.16;72.60;99933.03;105066;1253;69045;-67
2024/03/15 22:55:16;;;;;;;58.30;38.60;;;;;;;13.15;72.81;99927.61;106103;1254;72518;-66
2024/03/15 22:58:28;;;;;;;62.70;42.90;;;;;;;13.19;71.69;99928.64;104540;1254;60620;-65
2024/03/15 23:01:42;;;;;;;61.20;39.90;;;;;;;13.19;72.35;99933.96;105881;1254;60584;-72
2024/03/15 23:11:47;;;;;;;54.30;35.70;;;;;;;13.15;71.86;99922.69;105056;1254;73858;-66
2024/03/15 23:21:06;;;;;;;52.30;35.20;;;;;;;13.13;71.64;99920.88;104625;1253;74014;-66
2024/03/15 23:27:28;;;;;;;56.00;38.60;;;;;;;13.05;70.95;99922.14;104513;1257;71867;-67
2024/03/15 23:37:05;;;;;;;49.30;34.70;;;;;;;12.98;73.39;99928.09;105184;1256;74734;-65
2024/03/15 23:46:45;;;;;;;46.10;33.10;;;;;;;12.79;75.46;99934.27;104418;1253;60595;-65
2024/03/15 23:49:20;;;;;;;54.70;36.40;;;;;;;12.97;74.53;99937.12;105568;1255;60626;-64
2024/03/15 23:56:12;;;;;;;54.70;36.20;;;;;;;13.09;74.27;99929.01;106219;1254;69452;-66
2024/03/15 23:58:51;;;;;;;49.70;35.80;;;;;;;13.06;73.55;99928.58;105410;1258;71794;-66
